createdAt,value
2022-10-06T00:00:01.132Z,0.3972222222222222
2022-10-06T00:01:10.230Z,0.22222222222222224
2022-10-06T00:02:01.169Z,0.47777777777777775
2022-10-06T00:03:01.223Z,0.23888888888888887
2022-10-06T00:04:01.147Z,0
2022-10-06T00:05:01.532Z,0.11944444444444444
2022-10-06T00:06:12.060Z,0.20833333333333331
2022-10-06T00:07:02.279Z,0.35833333333333334
2022-10-06T00:08:01.073Z,0
2022-10-06T00:09:01.090Z,0.19999999999999998
2022-10-06T00:10:01.087Z,0.15833333333333333
2022-10-06T00:11:15.240Z,0
2022-10-06T00:12:01.775Z,0.15833333333333333
2022-10-06T00:13:01.099Z,0.11944444444444444
2022-10-06T00:14:01.460Z,0.2972222222222222
2022-10-06T00:15:01.479Z,0.2777777777777778
2022-10-06T00:16:17.692Z,0.775
2022-10-06T00:17:01.195Z,0.23888888888888887
2022-10-06T00:18:01.150Z,0.19999999999999998
2022-10-06T00:19:01.150Z,0.03888888888888889
2022-10-06T00:20:01.148Z,0.11944444444444444
2022-10-06T00:21:01.061Z,0
2022-10-06T00:22:01.033Z,0.31666666666666665
2022-10-06T00:23:01.311Z,0.08055555555555555
2022-10-06T00:24:01.324Z,0.23888888888888887
2022-10-06T00:25:02.203Z,0.075
2022-10-06T00:26:01.216Z,0
2022-10-06T00:27:01.907Z,0
2022-10-06T00:28:01.904Z,0
2022-10-06T00:29:01.103Z,0.6361111111111111
2022-10-06T00:30:01.130Z,0.5166666666666667
2022-10-06T00:31:01.204Z,0.11944444444444444
2022-10-06T00:32:01.120Z,0.2777777777777778
2022-10-06T00:33:01.130Z,0.23888888888888887
2022-10-06T00:34:01.148Z,0.03888888888888889
2022-10-06T00:35:01.541Z,0.20833333333333331
2022-10-06T00:36:01.168Z,0.08055555555555555
2022-10-06T00:37:01.174Z,0.23888888888888887
2022-10-06T00:38:00.642Z,0.11944444444444444
2022-10-06T00:39:00.348Z,0.23888888888888887
2022-10-06T00:40:00.040Z,0.03888888888888889
2022-10-06T00:40:59.808Z,0.875
2022-10-06T00:42:02.467Z,0.7138888888888888
2022-10-06T00:43:01.772Z,0.15833333333333333
2022-10-06T00:44:01.782Z,0.15833333333333333
2022-10-06T00:45:02.118Z,0
2022-10-06T00:46:01.160Z,0
2022-10-06T00:47:01.125Z,0
2022-10-06T00:48:01.125Z,0
2022-10-06T00:49:01.127Z,0
2022-10-06T00:50:01.855Z,0
2022-10-06T00:51:01.157Z,0
2022-10-06T00:52:01.546Z,0
2022-10-06T00:53:01.173Z,0.19999999999999998
2022-10-06T00:54:02.079Z,0
2022-10-06T00:55:01.175Z,0
2022-10-06T00:56:01.094Z,0.19999999999999998
2022-10-06T00:57:01.088Z,0
2022-10-06T00:58:01.109Z,0.47777777777777775
2022-10-06T00:59:01.039Z,0.11944444444444444
2022-10-06T01:00:01.061Z,0.15833333333333333
2022-10-06T01:01:01.143Z,0.4361111111111111
2022-10-06T01:02:01.444Z,0.15833333333333333
2022-10-06T01:03:02.218Z,0.37777777777777777
2022-10-06T01:04:02.056Z,0.07777777777777778
2022-10-06T01:05:02.170Z,0
2022-10-06T01:06:01.437Z,0.08055555555555555
2022-10-06T01:07:02.591Z,0
2022-10-06T01:08:02.598Z,0.11944444444444444
2022-10-06T01:09:01.348Z,0
2022-10-06T01:10:02.628Z,0.15833333333333333
2022-10-06T01:11:01.283Z,0.11944444444444444
2022-10-06T01:12:01.413Z,0
2022-10-06T01:13:01.877Z,0.10555555555555556
2022-10-06T01:14:02.299Z,0
2022-10-06T01:15:01.128Z,0.19999999999999998
2022-10-06T01:16:01.240Z,0
2022-10-06T01:17:01.124Z,0
2022-10-06T01:18:01.124Z,0.08055555555555555
2022-10-06T01:19:02.029Z,0.19999999999999998
2022-10-06T01:20:01.143Z,0
2022-10-06T01:21:01.099Z,0
2022-10-06T01:22:01.265Z,0.1611111111111111
2022-10-06T01:23:01.162Z,0
2022-10-06T01:24:01.054Z,0
2022-10-06T01:25:01.062Z,0
2022-10-06T01:26:01.094Z,0
2022-10-06T01:27:01.452Z,0
2022-10-06T01:28:01.148Z,0
2022-10-06T01:29:01.085Z,0
2022-10-06T01:30:01.089Z,0
2022-10-06T01:31:01.164Z,0
2022-10-06T01:32:01.133Z,0
2022-10-06T01:33:01.613Z,0
2022-10-06T01:34:01.081Z,0
2022-10-06T01:35:01.225Z,0
2022-10-06T01:36:01.151Z,0.2777777777777778
2022-10-06T01:37:01.617Z,0.44166666666666665
2022-10-06T01:38:02.106Z,0.2888888888888889
2022-10-06T01:39:01.761Z,0
2022-10-06T01:40:01.176Z,0
2022-10-06T01:41:01.179Z,1.0722222222222222
2022-10-06T01:42:05.017Z,0.5277777777777778
2022-10-06T01:43:01.871Z,0.15833333333333333
2022-10-06T01:44:01.723Z,0.9944444444444445
2022-10-06T01:45:01.324Z,0.3972222222222222
2022-10-06T01:46:01.374Z,0.8333333333333333
2022-10-06T01:47:07.438Z,0.6138888888888888
2022-10-06T01:48:01.070Z,0.47777777777777775
2022-10-06T01:49:01.493Z,0.15833333333333333
2022-10-06T01:50:01.735Z,0.23888888888888887
2022-10-06T01:51:01.160Z,0.5972222222222222
2022-10-06T01:52:10.375Z,0.1611111111111111
2022-10-06T01:53:01.271Z,0.9138888888888889
2022-10-06T01:54:01.388Z,0.23888888888888887
2022-10-06T01:55:04.022Z,0.08055555555555555
2022-10-06T01:56:04.756Z,0
2022-10-06T01:57:12.677Z,0.30833333333333335
2022-10-06T01:58:00.856Z,0.15833333333333333
2022-10-06T01:59:00.553Z,0.23888888888888887
2022-10-06T02:00:00.167Z,0.11944444444444444
2022-10-06T02:00:59.865Z,0.15833333333333333
2022-10-06T02:02:14.271Z,0.35555555555555557
2022-10-06T02:03:01.116Z,0.19999999999999998
2022-10-06T02:04:01.148Z,0.2333333333333333
2022-10-06T02:05:01.521Z,0.2888888888888889
2022-10-06T02:06:01.286Z,0.47777777777777775
2022-10-06T02:07:01.149Z,0.35833333333333334
2022-10-06T02:08:01.131Z,0.23888888888888887
2022-10-06T02:09:01.036Z,0.3972222222222222
2022-10-06T02:10:01.151Z,0.19999999999999998
2022-10-06T02:11:01.174Z,0.15833333333333333
2022-10-06T02:12:01.180Z,0.5166666666666667
2022-10-06T02:13:01.082Z,0
2022-10-06T02:14:00.546Z,0.2777777777777778
2022-10-06T02:15:00.267Z,0.2972222222222222
2022-10-06T02:16:00.063Z,0.5972222222222222
2022-10-06T02:16:59.950Z,0
2022-10-06T02:17:59.569Z,0.11944444444444444
2022-10-06T02:19:01.232Z,0.2777777777777778
2022-10-06T02:20:01.869Z,0
2022-10-06T02:21:01.880Z,0
2022-10-06T02:22:01.166Z,0
2022-10-06T02:23:01.033Z,0
2022-10-06T02:24:01.130Z,0
2022-10-06T02:25:01.857Z,0
2022-10-06T02:26:01.164Z,0
2022-10-06T02:27:01.149Z,0
2022-10-06T02:28:01.325Z,0
2022-10-06T02:29:01.067Z,0
2022-10-06T02:30:01.058Z,0.11944444444444444
2022-10-06T02:31:01.124Z,0.03888888888888889
2022-10-06T02:32:01.086Z,0
2022-10-06T02:33:01.095Z,0
2022-10-06T02:34:01.094Z,0.3972222222222222
2022-10-06T02:35:01.096Z,0.2777777777777778
2022-10-06T02:36:01.129Z,0
2022-10-06T02:37:01.515Z,0
2022-10-06T02:38:01.115Z,0
2022-10-06T02:39:01.038Z,0
2022-10-06T02:40:01.214Z,0.8333333333333333
2022-10-06T02:41:01.343Z,0.2777777777777778
2022-10-06T02:42:02.584Z,0.08055555555555555
2022-10-06T02:43:02.098Z,0
2022-10-06T02:44:01.751Z,0.7138888888888888
2022-10-06T02:45:01.693Z,0.6111111111111112
2022-10-06T02:46:02.334Z,0.19722222222222222
2022-10-06T02:47:02.386Z,0.5305555555555556
2022-10-06T02:48:02.649Z,0.35833333333333334
2022-10-06T02:49:01.078Z,0.8333333333333333
2022-10-06T02:50:01.103Z,0.19999999999999998
2022-10-06T02:51:01.109Z,0.03888888888888889
2022-10-06T02:52:01.224Z,0.3972222222222222
2022-10-06T02:53:01.435Z,0.14166666666666666
2022-10-06T02:54:01.058Z,0.3805555555555556
2022-10-06T02:55:01.044Z,0.11944444444444444
2022-10-06T02:56:01.138Z,0.15833333333333333
2022-10-06T02:57:01.142Z,0.6361111111111111
2022-10-06T02:58:01.149Z,0.19999999999999998
2022-10-06T02:59:01.796Z,0.31666666666666665
2022-10-06T03:00:01.793Z,0.3972222222222222
2022-10-06T03:01:04.733Z,0.3972222222222222
2022-10-06T03:02:01.289Z,0.31666666666666665
2022-10-06T03:03:02.404Z,0.38888888888888884
2022-10-06T03:04:02.633Z,0.49166666666666664
2022-10-06T03:05:01.083Z,0.15833333333333333
2022-10-06T03:06:01.341Z,0.19999999999999998
2022-10-06T03:07:01.149Z,0.11944444444444444
2022-10-06T03:08:01.118Z,0.2777777777777778
2022-10-06T03:09:01.108Z,0.08055555555555555
2022-10-06T03:10:01.131Z,0.6361111111111111
2022-10-06T03:11:01.135Z,0.15833333333333333
2022-10-06T03:12:01.510Z,0.35833333333333334
2022-10-06T03:13:01.150Z,0.40555555555555556
2022-10-06T03:14:00.743Z,0.7555555555555555
2022-10-06T03:15:00.306Z,0.47777777777777775
2022-10-06T03:16:00.002Z,0.31666666666666665
2022-10-06T03:16:59.616Z,0.35833333333333334
2022-10-06T03:18:01.256Z,0.17222222222222222
2022-10-06T03:19:01.080Z,0.11944444444444444
2022-10-06T03:20:01.102Z,0.2777777777777778
2022-10-06T03:21:01.227Z,0.08055555555555555
2022-10-06T03:22:01.096Z,0.15833333333333333
2022-10-06T03:23:01.107Z,0.20833333333333331
2022-10-06T03:24:01.115Z,0
2022-10-06T03:25:01.118Z,0.19999999999999998
2022-10-06T03:26:01.127Z,0
2022-10-06T03:27:01.128Z,0.23888888888888887
2022-10-06T03:28:00.737Z,0.036111111111111115
2022-10-06T03:29:00.781Z,0
2022-10-06T03:30:00.801Z,0
2022-10-06T03:31:00.534Z,0
2022-10-06T03:32:00.118Z,0.4361111111111111
2022-10-06T03:33:02.598Z,0.17222222222222222
2022-10-06T03:34:01.743Z,0
2022-10-06T03:35:01.754Z,0.15833333333333333
2022-10-06T03:36:01.758Z,0
2022-10-06T03:37:01.764Z,0.11944444444444444
2022-10-06T03:38:04.848Z,0.14722222222222223
2022-10-06T03:39:01.394Z,0.08055555555555555
2022-10-06T03:40:04.478Z,0
2022-10-06T03:41:01.426Z,0
2022-10-06T03:42:01.506Z,0
2022-10-06T03:43:08.144Z,0.18333333333333335
2022-10-06T03:44:02.478Z,0.19999999999999998
2022-10-06T03:45:01.049Z,0.08055555555555555
2022-10-06T03:46:01.061Z,0
2022-10-06T03:47:01.113Z,0
2022-10-06T03:48:10.650Z,0.011111111111111112
2022-10-06T03:49:01.463Z,0
2022-10-06T03:50:01.065Z,0.08055555555555555
2022-10-06T03:51:01.097Z,0.03888888888888889
2022-10-06T03:52:01.085Z,0.03888888888888889
2022-10-06T03:53:14.494Z,0
2022-10-06T03:54:01.772Z,0
2022-10-06T03:55:01.057Z,0
2022-10-06T03:56:01.124Z,0
2022-10-06T03:57:01.109Z,0
2022-10-06T03:58:16.394Z,0
2022-10-06T03:59:01.504Z,0.03888888888888889
2022-10-06T04:00:02.617Z,0.08055555555555555
2022-10-06T04:01:01.300Z,0.08055555555555555
2022-10-06T04:02:01.173Z,0.31666666666666665
2022-10-06T04:03:01.152Z,0.23888888888888887
2022-10-06T04:04:00.857Z,0.3972222222222222
2022-10-06T04:05:00.456Z,0.03888888888888889
2022-10-06T04:06:00.047Z,0.23888888888888887
2022-10-06T04:06:59.634Z,0.35833333333333334
2022-10-06T04:08:01.279Z,0.15833333333333333
2022-10-06T04:09:00.982Z,0.23888888888888887
2022-10-06T04:10:02.117Z,0.23888888888888887
2022-10-06T04:11:01.056Z,0
2022-10-06T04:12:01.125Z,0.15833333333333333
2022-10-06T04:13:01.118Z,0.35833333333333334
2022-10-06T04:14:01.123Z,0.19999999999999998
2022-10-06T04:15:01.529Z,0.4527777777777777
2022-10-06T04:16:01.273Z,0
2022-10-06T04:17:01.956Z,0.19999999999999998
2022-10-06T04:18:01.445Z,0
2022-10-06T04:19:01.053Z,0.19999999999999998
2022-10-06T04:20:01.072Z,0.9138888888888889
2022-10-06T04:21:01.079Z,0.35833333333333334
2022-10-06T04:22:01.585Z,0.2777777777777778
2022-10-06T04:23:01.122Z,0.47777777777777775
2022-10-06T04:24:01.163Z,0
2022-10-06T04:25:01.426Z,0
2022-10-06T04:26:01.491Z,0.6666666666666666
2022-10-06T04:27:01.255Z,0.31666666666666665
2022-10-06T04:28:01.131Z,0.5166666666666667
2022-10-06T04:29:01.116Z,0.23888888888888887
2022-10-06T04:30:01.242Z,0.35833333333333334
2022-10-06T04:31:01.140Z,0.2777777777777778
2022-10-06T04:32:01.198Z,0.31666666666666665
2022-10-06T04:33:01.142Z,0
2022-10-06T04:34:01.439Z,0.1527777777777778
2022-10-06T04:35:01.584Z,0.15833333333333333
2022-10-06T04:36:02.069Z,0.5166666666666667
2022-10-06T04:37:01.236Z,0.19999999999999998
2022-10-06T04:38:01.079Z,0.5555555555555556
2022-10-06T04:39:01.176Z,0.8333333333333333
2022-10-06T04:40:01.083Z,0.4361111111111111
2022-10-06T04:41:01.137Z,1.1916666666666667
2022-10-06T04:42:01.440Z,0.8333333333333333
2022-10-06T04:43:01.447Z,0.15833333333333333
2022-10-06T04:44:02.165Z,0.19166666666666665
2022-10-06T04:45:01.098Z,0.08055555555555555
2022-10-06T04:46:09.523Z,0.35833333333333334
2022-10-06T04:47:01.167Z,0.23888888888888887
2022-10-06T04:48:01.426Z,0.7138888888888888
2022-10-06T04:49:01.486Z,0.8333333333333333
2022-10-06T04:50:00.757Z,0.9944444444444445
2022-10-06T04:51:00.575Z,0.4361111111111111
2022-10-06T04:52:00.248Z,0.19999999999999998
2022-10-06T04:52:59.936Z,0.19999999999999998
2022-10-06T04:53:59.522Z,0.15833333333333333
2022-10-06T04:55:01.088Z,0.875
2022-10-06T04:56:01.332Z,0.675
2022-10-06T04:57:01.092Z,0.47777777777777775
2022-10-06T04:58:01.104Z,0.5555555555555556
2022-10-06T04:59:01.711Z,0.9555555555555555
2022-10-06T05:00:06.159Z,0.4611111111111111
2022-10-06T05:01:02.748Z,0.18333333333333335
2022-10-06T05:02:01.343Z,0.31666666666666665
2022-10-06T05:03:01.130Z,1.152777777777778
2022-10-06T05:04:01.285Z,0.41666666666666663
2022-10-06T05:05:01.591Z,0.7944444444444444
2022-10-06T05:06:01.189Z,0.9527777777777778
2022-10-06T05:07:01.056Z,0.7555555555555555
2022-10-06T05:08:01.053Z,0.47777777777777775
2022-10-06T05:09:01.172Z,0.6027777777777777
2022-10-06T05:10:01.642Z,1.0722222222222222
2022-10-06T05:11:01.392Z,1.0333333333333334
2022-10-06T05:12:01.046Z,0.9138888888888889
2022-10-06T05:13:01.047Z,1.6694444444444443
2022-10-06T05:14:01.096Z,1.8583333333333334
2022-10-06T05:15:01.052Z,1.3111111111111111
2022-10-06T05:16:01.609Z,1.3916666666666666
2022-10-06T05:17:01.505Z,0.9055555555555554
2022-10-06T05:18:01.124Z,0.5166666666666667
2022-10-06T05:19:03.162Z,0.9638888888888889
2022-10-06T05:20:01.144Z,1.2722222222222221
2022-10-06T05:21:06.348Z,1.7472222222222222
2022-10-06T05:22:01.301Z,0.9944444444444445
2022-10-06T05:23:02.494Z,2.025
2022-10-06T05:24:06.203Z,0.7722222222222221
2022-10-06T05:25:02.062Z,2.2111111111111112
2022-10-06T05:26:01.087Z,0.6361111111111111
2022-10-06T05:27:02.034Z,1.5083333333333333
2022-10-06T05:28:01.148Z,1.0333333333333334
2022-10-06T05:29:09.763Z,1.2666666666666666
2022-10-06T05:30:01.092Z,1.1916666666666667
2022-10-06T05:31:01.185Z,0.8333333333333333
2022-10-06T05:32:02.275Z,1.1055555555555556
2022-10-06T05:33:01.295Z,0.9944444444444445
2022-10-06T05:34:13.870Z,1.2666666666666666
2022-10-06T05:35:02.424Z,1.7916666666666667
2022-10-06T05:36:01.552Z,1.3111111111111111
2022-10-06T05:37:01.402Z,0.5972222222222222
2022-10-06T05:38:01.047Z,0.6361111111111111
2022-10-06T05:39:16.201Z,1.9083333333333332
2022-10-06T05:40:01.458Z,1.0611111111111111
2022-10-06T05:41:01.443Z,0.9916666666666666
2022-10-06T05:42:01.037Z,0.5166666666666667
2022-10-06T05:43:01.077Z,1.35
2022-10-06T05:44:01.200Z,1.4305555555555556
2022-10-06T05:45:01.290Z,1.5277777777777777
2022-10-06T05:46:02.164Z,1.35
2022-10-06T05:47:01.341Z,1.9861111111111112
2022-10-06T05:48:00.952Z,2.025
2022-10-06T05:49:00.612Z,0.5555555555555556
2022-10-06T05:50:00.359Z,0.7944444444444444
2022-10-06T05:51:00.004Z,1.0722222222222222
2022-10-06T05:51:59.726Z,1.35
2022-10-06T05:53:01.342Z,1.55
2022-10-06T05:54:01.382Z,2.661111111111111
2022-10-06T05:55:01.437Z,1.1694444444444445
2022-10-06T05:56:04.544Z,1.55
2022-10-06T05:57:01.900Z,1.3694444444444442
2022-10-06T05:58:01.155Z,1.35
2022-10-06T05:59:01.144Z,0.9944444444444445
2022-10-06T06:00:01.041Z,1.3111111111111111
2022-10-06T06:01:01.147Z,0.5972222222222222
2022-10-06T06:02:01.301Z,0.6361111111111111
2022-10-06T06:03:01.325Z,2.066666666666667
2022-10-06T06:04:04.070Z,0.5555555555555556
2022-10-06T06:05:01.401Z,1.4138888888888888
2022-10-06T06:06:01.477Z,0.7138888888888888
2022-10-06T06:07:01.097Z,0.47777777777777775
2022-10-06T06:08:01.546Z,0.2777777777777778
2022-10-06T06:09:01.430Z,1.3916666666666666
2022-10-06T06:10:02.513Z,1.152777777777778
2022-10-06T06:11:01.183Z,1.2305555555555554
2022-10-06T06:12:01.867Z,0.7944444444444444
2022-10-06T06:13:01.871Z,0.3972222222222222
2022-10-06T06:14:01.302Z,0.47777777777777775
2022-10-06T06:15:01.750Z,0.4361111111111111
2022-10-06T06:16:02.002Z,0.47777777777777775
2022-10-06T06:17:02.262Z,0.7944444444444444
2022-10-06T06:18:01.111Z,0.675
2022-10-06T06:19:01.407Z,0.5166666666666667
2022-10-06T06:20:01.053Z,0.8333333333333333
2022-10-06T06:21:01.053Z,1.0722222222222222
2022-10-06T06:22:01.557Z,0.9527777777777778
2022-10-06T06:23:01.309Z,0.7555555555555555
2022-10-06T06:24:01.975Z,1.3916666666666666
2022-10-06T06:25:01.158Z,1.0722222222222222
2022-10-06T06:26:02.446Z,0.47777777777777775
2022-10-06T06:27:01.362Z,1.152777777777778
2022-10-06T06:28:02.263Z,0.9138888888888889
2022-10-06T06:29:01.941Z,0.9527777777777778
2022-10-06T06:30:00.856Z,1.2722222222222221
2022-10-06T06:31:00.637Z,1.4694444444444443
2022-10-06T06:32:00.536Z,1.55
2022-10-06T06:33:00.278Z,1.0722222222222222
2022-10-06T06:33:59.922Z,0.8333333333333333
2022-10-06T06:34:59.558Z,0.8555555555555555
2022-10-06T06:36:01.146Z,0.7944444444444444
2022-10-06T06:37:06.774Z,1.7083333333333335
2022-10-06T06:38:01.213Z,0.5166666666666667
2022-10-06T06:39:01.141Z,1.4694444444444443
2022-10-06T06:40:01.218Z,2.6638888888888888
2022-10-06T06:41:01.406Z,1.8666666666666665
2022-10-06T06:42:01.439Z,1.5416666666666665
2022-10-06T06:43:01.181Z,0.5555555555555556
2022-10-06T06:44:01.066Z,1.1111111111111112
2022-10-06T06:45:01.307Z,1.3166666666666667
2022-10-06T06:46:02.126Z,1.2305555555555554
2022-10-06T06:47:01.232Z,2.225
2022-10-06T06:48:01.910Z,1.3111111111111111
2022-10-06T06:49:01.451Z,0.35833333333333334
2022-10-06T06:50:01.331Z,1.55
2022-10-06T06:51:01.222Z,1.4305555555555556
2022-10-06T06:52:01.517Z,0.3666666666666667
2022-10-06T06:53:01.233Z,1.5083333333333333
2022-10-06T06:54:01.133Z,0.9527777777777778
2022-10-06T06:55:01.146Z,0.7999999999999999
2022-10-06T06:56:01.144Z,0.8333333333333333
2022-10-06T06:57:01.407Z,0.5555555555555556
2022-10-06T06:58:01.058Z,1.0722222222222222
2022-10-06T06:59:01.047Z,1.0333333333333334
2022-10-06T07:00:01.122Z,0.8611111111111112
2022-10-06T07:01:01.488Z,0.35833333333333334
2022-10-06T07:02:01.233Z,0.7555555555555555
2022-10-06T07:03:01.077Z,0.8333333333333333
2022-10-06T07:04:01.085Z,0.7555555555555555
2022-10-06T07:05:03.509Z,0.44166666666666665
2022-10-06T07:06:02.470Z,0.35833333333333334
2022-10-06T07:07:01.122Z,0.15833333333333333
2022-10-06T07:08:01.115Z,0.9138888888888889
2022-10-06T07:09:01.121Z,0.47777777777777775
2022-10-06T07:10:05.642Z,0.5
2022-10-06T07:11:00.961Z,0.4361111111111111
2022-10-06T07:12:01.492Z,0.6361111111111111
2022-10-06T07:13:01.475Z,1.2722222222222221
2022-10-06T07:14:01.659Z,1.1916666666666667
2022-10-06T07:15:08.661Z,0.6666666666666666
2022-10-06T07:16:01.357Z,0.5972222222222222
2022-10-06T07:17:01.296Z,0.5555555555555556
2022-10-06T07:18:01.801Z,0.3972222222222222
2022-10-06T07:19:01.931Z,0.47777777777777775
2022-10-06T07:20:11.185Z,0.7388888888888889
2022-10-06T07:21:01.226Z,0.5555555555555556
2022-10-06T07:22:01.106Z,1.1916666666666667
2022-10-06T07:23:01.055Z,1.1916666666666667
2022-10-06T07:24:01.122Z,1.1111111111111112
2022-10-06T07:25:14.252Z,0.513888888888889
2022-10-06T07:26:01.151Z,0.31666666666666665
2022-10-06T07:27:01.148Z,1.3916666666666666
2022-10-06T07:28:01.450Z,0.875
2022-10-06T07:29:01.537Z,0.45
2022-10-06T07:30:01.098Z,1.6694444444444443
2022-10-06T07:31:01.017Z,0.47777777777777775
2022-10-06T07:32:01.092Z,1.1111111111111112
2022-10-06T07:33:01.070Z,1.7083333333333335
2022-10-06T07:34:01.082Z,0.9527777777777778
2022-10-06T07:35:01.074Z,0.8333333333333333
2022-10-06T07:36:01.093Z,0.7138888888888888
2022-10-06T07:37:04.123Z,1.3222222222222222
2022-10-06T07:38:01.538Z,1.0333333333333334
2022-10-06T07:39:01.219Z,1.4694444444444443
2022-10-06T07:40:01.966Z,1.4305555555555556
2022-10-06T07:42:01.242Z,0.7944444444444444
2022-10-06T07:43:01.132Z,2.263888888888889
2022-10-06T07:44:05.808Z,0.7138888888888888
2022-10-06T07:45:01.172Z,1.0722222222222222
2022-10-06T07:46:01.879Z,0.4111111111111111
2022-10-06T07:47:02.281Z,0.5
2022-10-06T07:48:01.141Z,1.4305555555555556
2022-10-06T07:49:01.068Z,0.8333333333333333
2022-10-06T07:50:01.084Z,0.3972222222222222
2022-10-06T07:51:01.141Z,0.5166666666666667
2022-10-06T07:52:01.158Z,0.4361111111111111
2022-10-06T07:53:01.111Z,0.5555555555555556
2022-10-06T07:54:02.144Z,0.7555555555555555
2022-10-06T07:55:01.125Z,0.5166666666666667
2022-10-06T07:56:01.128Z,1.2305555555555554
2022-10-06T07:57:01.478Z,0.35555555555555557
2022-10-06T07:58:01.110Z,0.11944444444444444
2022-10-06T07:59:01.165Z,1.152777777777778
2022-10-06T08:00:03.298Z,0.4361111111111111
2022-10-06T08:01:01.965Z,1.788888888888889
2022-10-06T08:02:01.112Z,1.152777777777778
2022-10-06T08:03:01.142Z,0.7944444444444444
2022-10-06T08:04:01.787Z,2.225
2022-10-06T08:05:01.797Z,2.186111111111111
2022-10-06T08:06:01.456Z,0.75
2022-10-06T08:07:01.089Z,1.3111111111111111
2022-10-06T08:08:01.213Z,0.2777777777777778
2022-10-06T08:09:01.255Z,1.3916666666666666
2022-10-06T08:10:01.930Z,0.8333333333333333
2022-10-06T08:11:01.870Z,0.3972222222222222
2022-10-06T08:12:02.142Z,0.7944444444444444
2022-10-06T08:13:01.133Z,0.5555555555555556
2022-10-06T08:14:00.623Z,0.5166666666666667
2022-10-06T08:15:04.466Z,0.9944444444444445
2022-10-06T08:16:01.733Z,2.361111111111111
2022-10-06T08:17:02.682Z,1.3111111111111111
2022-10-06T08:18:01.753Z,0.9749999999999999
2022-10-06T08:19:02.177Z,1.1027777777777779
2022-10-06T08:20:01.402Z,1.7083333333333335
2022-10-06T08:21:01.054Z,1.4305555555555556
2022-10-06T08:22:04.798Z,2.1055555555555556
2022-10-06T08:23:01.057Z,1.2722222222222221
2022-10-06T08:24:01.308Z,1.2305555555555554
2022-10-06T08:25:06.141Z,1.5083333333333333
2022-10-06T08:26:04.027Z,2.1888888888888887
2022-10-06T08:27:01.431Z,0.875
2022-10-06T08:28:01.215Z,1.0333333333333334
2022-10-06T08:29:01.149Z,0.7138888888888888
2022-10-06T08:30:01.160Z,0.8333333333333333
2022-10-06T08:31:01.034Z,2.0083333333333333
2022-10-06T08:32:01.628Z,0.375
2022-10-06T08:33:01.560Z,0.7527777777777778
2022-10-06T08:34:02.117Z,1.0694444444444444
2022-10-06T08:35:01.832Z,1.7472222222222222
2022-10-06T08:36:01.074Z,1.2916666666666667
2022-10-06T08:37:19.389Z,1.7083333333333335
2022-10-06T08:38:01.784Z,0.6361111111111111
2022-10-06T08:39:01.172Z,0.5166666666666667
2022-10-06T08:40:01.548Z,1.3916666666666666
2022-10-06T08:41:01.608Z,1.238888888888889
2022-10-06T08:42:02.230Z,1.4305555555555556
2022-10-06T08:43:01.789Z,1.4305555555555556
2022-10-06T08:44:01.952Z,1.788888888888889
2022-10-06T08:45:01.572Z,2.661111111111111
2022-10-06T08:46:01.126Z,1.9194444444444445
2022-10-06T08:47:00.759Z,1.1111111111111112
2022-10-06T08:48:00.501Z,1.3111111111111111
2022-10-06T08:49:00.513Z,1.6694444444444443
2022-10-06T08:50:00.244Z,0.5166666666666667
2022-10-06T08:51:02.579Z,1.4277777777777776
2022-10-06T08:52:01.270Z,1.2305555555555554
2022-10-06T08:53:01.985Z,1.6277777777777778
2022-10-06T08:54:01.082Z,0.9944444444444445
2022-10-06T08:55:01.275Z,1.2722222222222221
2022-10-06T08:56:06.218Z,1.0333333333333334
2022-10-06T08:57:01.288Z,1.2305555555555554
2022-10-06T08:58:02.382Z,0.675
2022-10-06T08:59:02.317Z,1.3416666666666666
2022-10-06T09:00:02.352Z,0.5972222222222222
2022-10-06T09:01:08.509Z,0.911111111111111
2022-10-06T09:02:01.222Z,1.0333333333333334
2022-10-06T09:03:02.493Z,1.152777777777778
2022-10-06T09:04:01.449Z,1.2722222222222221
2022-10-06T09:05:01.484Z,0.5166666666666667
2022-10-06T09:06:11.993Z,0.85
2022-10-06T09:07:01.747Z,0.9138888888888889
2022-10-06T09:08:01.102Z,0.7944444444444444
2022-10-06T09:09:01.082Z,1.8666666666666665
2022-10-06T09:10:01.065Z,1.35
2022-10-06T09:11:14.252Z,1.4638888888888888
2022-10-06T09:12:01.168Z,1.152777777777778
2022-10-06T09:13:01.105Z,0.9944444444444445
2022-10-06T09:14:01.491Z,1.2777777777777777
2022-10-06T09:15:01.655Z,1.0166666666666666
2022-10-06T09:16:01.343Z,1.55
2022-10-06T09:17:01.170Z,1.7083333333333335
2022-10-06T09:18:01.162Z,1.9472222222222222
2022-10-06T09:19:08.664Z,0.875
2022-10-06T09:20:01.477Z,0.3972222222222222
2022-10-06T09:21:02.064Z,1.0722222222222222
2022-10-06T09:22:01.285Z,1.4694444444444443
2022-10-06T09:23:01.281Z,1.0722222222222222
2022-10-06T09:24:04.029Z,0.9888888888888889
2022-10-06T09:25:02.498Z,0.7444444444444445
2022-10-06T09:26:01.089Z,0.8333333333333333
2022-10-06T09:27:01.085Z,0.7555555555555555
2022-10-06T09:28:01.230Z,1.1916666666666667
2022-10-06T09:29:01.136Z,1.7083333333333335
2022-10-06T09:30:01.133Z,0.4361111111111111
2022-10-06T09:31:01.097Z,0.4361111111111111
2022-10-06T09:32:02.023Z,0.7166666666666667
2022-10-06T09:33:01.130Z,1.7472222222222222
2022-10-06T09:34:01.199Z,0.9527777777777778
2022-10-06T09:35:01.152Z,1.35
2022-10-06T09:36:01.155Z,0.47777777777777775
2022-10-06T09:37:02.315Z,1.0472222222222223
2022-10-06T09:38:04.465Z,0.7138888888888888
2022-10-06T09:39:01.125Z,1.1111111111111112
2022-10-06T09:40:01.115Z,0.7555555555555555
2022-10-06T09:41:01.713Z,0.9944444444444445
2022-10-06T09:42:02.424Z,0.5555555555555556
2022-10-06T09:43:01.775Z,0.7944444444444444
2022-10-06T09:44:01.110Z,0.7944444444444444